createdAt,value
2022-09-23T00:01:24.030Z,99881.31
2022-09-23T00:03:50.423Z,99872.50
2022-09-23T00:06:21.461Z,99868.91
2022-09-23T00:08:49.653Z,99870.72
2022-09-23T00:11:17.746Z,99876.06
2022-09-23T00:13:46.719Z,99866.31
2022-09-23T00:16:14.634Z,99861.94
2022-09-23T00:18:42.046Z,99861.97
2022-09-23T00:21:10.811Z,99869.13
2022-09-23T00:23:37.878Z,99866.47
2022-09-23T00:26:05.376Z,99856.78
2022-09-23T00:28:33.064Z,99862.97
2022-09-23T00:31:07.533Z,99856.78
2022-09-23T00:33:34.234Z,99862.09
2022-09-23T00:36:01.974Z,99857.72
2022-09-23T00:38:28.557Z,99854.22
2022-09-23T00:40:54.958Z,99853.34
2022-09-23T00:43:36.897Z,99848.94
2022-09-23T00:46:03.693Z,99848.94
2022-09-23T00:48:30.094Z,99848.09
2022-09-23T00:50:56.410Z,99853.41
2022-09-23T00:53:24.143Z,99842.78
2022-09-23T00:55:53.109Z,99845.44
2022-09-23T00:58:21.650Z,99848.09
2022-09-23T01:00:47.975Z,99842.78
2022-09-23T01:03:14.400Z,99844.53
2022-09-23T01:05:41.801Z,99841.00
2022-09-23T01:08:10.123Z,99846.31
2022-09-23T01:10:43.110Z,99843.69
2022-09-23T01:13:20.234Z,99847.25
2022-09-23T01:15:51.473Z,99840.16
2022-09-23T01:18:35.045Z,99835.75
2022-09-23T01:21:04.402Z,99831.38
2022-09-23T01:23:36.850Z,99825.22
2022-09-23T01:26:19.287Z,99818.16
2022-09-23T01:29:02.417Z,99827.88
2022-09-23T01:31:43.419Z,99815.50
2022-09-23T01:34:19.587Z,99817.28
2022-09-23T01:36:57.958Z,99812.03
2022-09-23T01:39:39.578Z,99816.44
2022-09-23T01:42:26.324Z,99817.31
2022-09-23T01:44:59.620Z,99816.44
2022-09-23T01:47:37.664Z,99804.06
2022-09-23T01:50:26.027Z,99808.44
2022-09-23T01:52:54.994Z,99800.47
2022-09-23T01:55:34.478Z,99798.69
2022-09-23T01:58:09.799Z,99804.84
2022-09-23T02:00:40.834Z,99801.31
2022-09-23T02:03:15.549Z,99798.66
2022-09-23T02:05:47.734Z,99800.41
2022-09-23T02:08:16.637Z,99796.00
2022-09-23T02:10:51.302Z,99792.47
2022-09-23T02:13:24.510Z,99796.00
2022-09-23T02:15:53.323Z,99790.75
2022-09-23T02:18:21.923Z,99791.66
2022-09-23T02:20:50.600Z,99788.13
2022-09-23T02:23:20.127Z,99791.69
2022-09-23T02:26:05.735Z,99786.44
2022-09-23T02:28:34.527Z,99782.94
2022-09-23T02:31:11.903Z,99776.75
2022-09-23T02:33:43.743Z,99784.75
2022-09-23T02:36:13.909Z,99785.72
2022-09-23T02:38:46.409Z,99781.28
2022-09-23T02:41:18.386Z,99781.34
2022-09-23T02:43:51.953Z,99772.50
2022-09-23T02:46:18.750Z,99778.75
2022-09-23T02:48:53.659Z,99769.03
2022-09-23T02:51:19.982Z,99771.69
2022-09-23T02:53:46.647Z,99769.91
2022-09-23T02:56:17.331Z,99761.97
2022-09-23T02:58:43.820Z,99769.06
2022-09-23T03:01:16.061Z,99768.19
2022-09-23T03:03:51.964Z,99762.91
2022-09-23T03:06:21.275Z,99763.81
2022-09-23T03:08:58.159Z,99760.28
2022-09-23T03:11:24.752Z,99757.69
2022-09-23T03:14:07.063Z,99756.78
2022-09-23T03:16:39.819Z,99751.53
2022-09-23T03:19:24.407Z,99748.03
2022-09-23T03:22:01.097Z,99740.94
2022-09-23T03:24:31.351Z,99738.31
2022-09-23T03:27:01.059Z,99741.88
2022-09-23T03:29:29.052Z,99738.34
2022-09-23T03:31:57.142Z,99740.13
2022-09-23T03:34:27.124Z,99731.31
2022-09-23T03:37:02.686Z,99729.56
2022-09-23T03:39:40.284Z,99732.22
2022-09-23T03:42:12.617Z,99730.47
2022-09-23T03:44:44.444Z,99728.75
2022-09-23T03:47:12.640Z,99726.09
2022-09-23T03:49:39.806Z,99717.25
2022-09-23T03:52:06.331Z,99722.56
2022-09-23T03:54:33.942Z,99720.81
2022-09-23T03:57:01.015Z,99726.16
2022-09-23T03:59:28.022Z,99716.50
2022-09-23T04:01:55.482Z,99717.41
2022-09-23T04:04:22.272Z,99716.50
2022-09-23T04:06:50.196Z,99726.28
2022-09-23T04:09:16.905Z,99719.22
2022-09-23T04:11:43.279Z,99715.69
2022-09-23T04:14:10.385Z,99709.53
2022-09-23T04:16:36.789Z,99718.34
2022-09-23T04:19:04.968Z,99709.53
2022-09-23T04:21:31.927Z,99722.84
2022-09-23T04:23:58.350Z,99714.88
2022-09-23T04:26:24.759Z,99707.81
2022-09-23T04:28:51.090Z,99708.69
2022-09-23T04:31:17.800Z,99700.75
2022-09-23T04:33:44.129Z,99700.78
2022-09-23T04:36:10.520Z,99705.19
2022-09-23T04:38:36.837Z,99710.47
2022-09-23T04:41:03.259Z,99703.44
2022-09-23T04:43:29.579Z,99707.00
2022-09-23T04:45:59.745Z,99707.88
2022-09-23T04:48:26.563Z,99702.63
2022-09-23T04:50:52.905Z,99694.66
2022-09-23T04:53:19.284Z,99697.34
2022-09-23T04:55:49.777Z,99702.63
2022-09-23T04:58:16.201Z,99700.88
2022-09-23T05:00:42.584Z,99704.41
2022-09-23T05:03:09.113Z,99697.31
2022-09-23T05:05:35.422Z,99695.56
2022-09-23T05:08:01.837Z,99701.78
2022-09-23T05:10:28.188Z,99697.34
2022-09-23T05:12:57.275Z,99697.34
2022-09-23T05:15:23.907Z,99705.28
2022-09-23T05:17:50.203Z,99695.59
2022-09-23T05:20:17.820Z,99697.31
2022-09-23T05:22:45.053Z,99694.66
2022-09-23T05:25:11.371Z,99699.97
2022-09-23T05:27:38.208Z,99703.50
2022-09-23T05:30:04.875Z,99697.28
2022-09-23T05:32:31.846Z,99702.59
2022-09-23T05:34:58.407Z,99705.22
2022-09-23T05:37:25.312Z,99699.00
2022-09-23T05:39:51.631Z,99702.50
2022-09-23T05:42:18.251Z,99703.38
2022-09-23T05:44:44.584Z,99698.91
2022-09-23T05:47:10.933Z,99704.19
2022-09-23T05:49:58.113Z,99706.81
2022-09-23T05:52:25.642Z,99700.59
2022-09-23T05:54:51.955Z,99702.31
2022-09-23T05:57:19.068Z,99705.78
2022-09-23T05:59:47.664Z,99698.59
2022-09-23T06:02:14.866Z,99699.44
2022-09-23T06:04:41.399Z,99703.78
2022-09-23T06:07:07.717Z,99701.97
2022-09-23T06:09:36.517Z,99693.03
2022-09-23T06:12:03.661Z,99702.63
2022-09-23T06:14:30.414Z,99696.31
2022-09-23T06:16:56.696Z,99694.47
2022-09-23T06:19:23.018Z,99698.75
2022-09-23T06:21:49.657Z,99696.84
2022-09-23T06:24:20.289Z,99687.88
2022-09-23T06:26:48.257Z,99690.38
2022-09-23T06:29:14.618Z,99690.16
2022-09-23T06:31:41.555Z,99690.91
2022-09-23T06:34:12.831Z,99690.75
2022-09-23T06:36:44.418Z,99695.03
2022-09-23T06:39:11.761Z,99692.16
2022-09-23T06:41:38.348Z,99697.31
2022-09-23T06:44:04.848Z,99693.53
2022-09-23T06:46:31.883Z,99689.72
2022-09-23T06:48:58.406Z,99685.78
2022-09-23T06:51:24.717Z,99691.75
2022-09-23T06:53:51.131Z,99690.75
2022-09-23T06:56:19.710Z,99687.84
2022-09-23T06:58:46.213Z,99689.34
2022-09-23T07:01:16.032Z,99688.00
2022-09-23T07:03:43.001Z,99686.53
2022-09-23T07:06:09.344Z,99687.81
2022-09-23T07:08:36.050Z,99688.44
2022-09-23T07:11:03.861Z,99685.38
2022-09-23T07:13:30.593Z,99691.94
2022-09-23T07:15:58.460Z,99692.44
2022-09-23T07:18:25.948Z,99693.78
2022-09-23T07:20:53.334Z,99688.88
2022-09-23T07:23:19.809Z,99687.31
2022-09-23T07:25:51.663Z,99693.81
2022-09-23T07:28:19.048Z,99686.84
2022-09-23T07:30:56.407Z,99690.81
2022-09-23T07:33:32.204Z,99688.69
2022-09-23T07:35:59.263Z,99691.72
2022-09-23T07:38:30.173Z,99689.59
2022-09-23T07:41:08.075Z,99689.25
2022-09-23T07:43:34.545Z,99688.81
2022-09-23T07:46:03.395Z,99685.72
2022-09-23T07:48:34.056Z,99688.88
2022-09-23T07:51:00.986Z,99691.78
2022-09-23T07:53:27.335Z,99683.38
2022-09-23T07:55:54.820Z,99698.16
2022-09-23T07:58:21.442Z,99685.22
2022-09-23T08:00:48.415Z,99688.31
2022-09-23T08:03:15.009Z,99687.78
2022-09-23T08:05:41.446Z,99698.94
2022-09-23T08:08:07.781Z,99697.03
2022-09-23T08:10:34.493Z,99694.47
2022-09-23T08:13:03.357Z,99694.09
2022-09-23T08:15:31.248Z,99690.06
2022-09-23T08:17:58.101Z,99695.94
2022-09-23T08:20:47.076Z,99705.13
2022-09-23T08:23:14.909Z,99697.63
2022-09-23T08:25:44.976Z,99695.78
2022-09-23T08:28:16.041Z,99696.94
2022-09-23T08:30:43.539Z,99693.53
2022-09-23T08:33:10.979Z,99691.38
2022-09-23T08:35:37.570Z,99699.84
2022-09-23T08:38:04.019Z,99685.19
2022-09-23T08:40:32.858Z,99689.19
2022-09-23T08:43:00.108Z,99684.63
2022-09-23T08:45:27.691Z,99678.56
2022-09-23T08:48:13.248Z,99675.13
2022-09-23T08:50:52.033Z,99676.41
2022-09-23T08:53:26.272Z,99670.88
2022-09-23T08:55:54.320Z,99668.00
2022-09-23T08:58:37.771Z,99664.13
2022-09-23T09:01:19.514Z,99668.38
2022-09-23T09:03:51.969Z,99665.53
2022-09-23T09:06:28.541Z,99663.03
2022-09-23T09:08:57.107Z,99664.25
2022-09-23T09:11:29.094Z,99663.13
2022-09-23T09:14:10.824Z,99658.34
2022-09-23T09:17:00.130Z,99659.22
2022-09-23T09:19:47.547Z,99659.66
2022-09-23T09:22:18.993Z,99663.72
2022-09-23T09:24:48.560Z,99650.81
2022-09-23T09:27:15.014Z,99649.25
2022-09-23T09:29:44.461Z,99651.66
2022-09-23T09:32:24.649Z,99652.34
2022-09-23T09:34:54.632Z,99649.34
2022-09-23T09:37:35.872Z,99647.72
2022-09-23T09:40:02.632Z,99649.25
2022-09-23T09:42:40.269Z,99641.63
2022-09-23T09:45:15.578Z,99647.34
2022-09-23T09:47:51.601Z,99637.72
2022-09-23T09:50:36.613Z,99636.66
2022-09-23T09:53:25.932Z,99630.00
2022-09-23T09:56:03.709Z,99633.00
2022-09-23T09:58:50.545Z,99633.16
2022-09-23T10:01:26.295Z,99627.75
2022-09-23T10:03:56.890Z,99627.75
2022-09-23T10:06:26.623Z,99615.41
2022-09-23T10:09:02.231Z,99612.50
2022-09-23T10:11:29.235Z,99617.41
2022-09-23T10:14:14.318Z,99612.09
2022-09-23T10:16:41.998Z,99613.44
2022-09-23T10:19:14.025Z,99614.81
2022-09-23T10:21:42.797Z,99612.22
2022-09-23T10:24:18.923Z,99611.81
2022-09-23T10:26:52.261Z,99608.63
2022-09-23T10:29:32.953Z,99607.78
2022-09-23T10:32:17.444Z,99613.91
2022-09-23T10:34:46.753Z,99603.03
2022-09-23T10:37:24.505Z,99604.28
2022-09-23T10:40:09.671Z,99592.22
2022-09-23T10:43:10.058Z,99593.66
2022-09-23T10:45:58.655Z,99585.28
2022-09-23T10:48:37.192Z,99587.50
2022-09-23T10:51:27.458Z,99581.53
2022-09-23T10:53:53.739Z,99574.81
2022-09-23T10:56:27.673Z,99574.28
2022-09-23T10:59:09.377Z,99573.47
2022-09-23T11:01:43.880Z,99569.84
2022-09-23T11:04:19.428Z,99569.66
2022-09-23T11:06:53.854Z,99562.25
2022-09-23T11:09:26.019Z,99567.44
2022-09-23T11:12:07.385Z,99560.16
2022-09-23T11:14:52.526Z,99556.78
2022-09-23T11:17:21.954Z,99553.94
2022-09-23T11:19:48.288Z,99560.34
2022-09-23T11:22:25.015Z,99550.59
2022-09-23T11:25:10.306Z,99547.25
2022-09-23T11:27:36.568Z,99548.47
2022-09-23T11:30:07.073Z,99539.22
2022-09-23T11:32:33.453Z,99546.50
2022-09-23T11:35:11.137Z,99544.56
2022-09-23T11:37:40.247Z,99535.28
2022-09-23T11:40:19.160Z,99530.22
2022-09-23T11:42:50.664Z,99528.69
2022-09-23T11:45:21.431Z,99524.91
2022-09-23T11:47:52.014Z,99522.25
2022-09-23T11:50:38.706Z,99531.66
2022-09-23T11:53:20.386Z,99517.81
2022-09-23T11:55:57.845Z,99514.13
2022-09-23T11:58:46.190Z,99519.53
2022-09-23T12:01:31.152Z,99518.97
2022-09-23T12:04:27.531Z,99512.00
2022-09-23T12:06:58.753Z,99509.03
2022-09-23T12:09:53.834Z,99508.06
2022-09-23T12:12:25.068Z,99508.38
2022-09-23T12:15:12.023Z,99500.56
2022-09-23T12:17:41.534Z,99499.19
2022-09-23T12:20:10.676Z,99490.50
2022-09-23T12:22:52.830Z,99493.13
2022-09-23T12:25:45.952Z,99497.63
2022-09-23T12:28:15.475Z,99500.34
2022-09-23T12:30:42.571Z,99483.22
2022-09-23T12:33:11.874Z,99484.09
2022-09-23T12:35:41.832Z,99485.81
2022-09-23T12:38:14.219Z,99482.56
2022-09-23T12:40:44.894Z,99483.78
2022-09-23T12:43:30.373Z,99484.06
2022-09-23T12:46:16.481Z,99484.75
2022-09-23T12:48:44.142Z,99479.34
2022-09-23T12:51:17.934Z,99479.53
2022-09-23T12:53:47.205Z,99473.13
2022-09-23T12:56:18.653Z,99478.56
2022-09-23T12:58:44.931Z,99474.53
2022-09-23T13:01:14.376Z,99462.38
2022-09-23T13:04:08.306Z,99464.69
2022-09-23T13:06:40.829Z,99456.97
2022-09-23T13:09:14.154Z,99466.09
2022-09-23T13:11:43.478Z,99458.81
2022-09-23T13:14:11.464Z,99454.47
2022-09-23T13:16:42.011Z,99452.09
2022-09-23T13:19:26.853Z,99445.81
2022-09-23T13:21:53.198Z,99442.88
2022-09-23T13:24:19.710Z,99448.72
2022-09-23T13:26:51.181Z,99440.25
2022-09-23T13:29:24.457Z,99434.75
2022-09-23T13:31:51.050Z,99428.78
2022-09-23T13:34:20.547Z,99427.22
2022-09-23T13:36:47.791Z,99428.31
2022-09-23T13:39:22.906Z,99427.06
2022-09-23T13:41:51.879Z,99431.25
2022-09-23T13:44:20.071Z,99423.50
2022-09-23T13:46:48.032Z,99421.66
2022-09-23T13:49:23.218Z,99418.31
2022-09-23T13:51:50.081Z,99412.53
2022-09-23T13:54:28.899Z,99409.28
2022-09-23T13:56:56.542Z,99402.84
2022-09-23T13:59:27.484Z,99402.19
2022-09-23T14:02:04.157Z,99406.13
2022-09-23T14:04:30.613Z,99404.19
2022-09-23T14:06:57.326Z,99398.78
2022-09-23T14:09:27.407Z,99396.47
2022-09-23T14:11:55.015Z,99399.47
2022-09-23T14:14:23.175Z,99397.59
2022-09-23T14:16:50.964Z,99400.09
2022-09-23T14:19:18.575Z,99395.81
2022-09-23T14:21:47.897Z,99393.44
2022-09-23T14:24:15.609Z,99386.53
2022-09-23T14:26:43.190Z,99382.97
2022-09-23T14:29:17.631Z,99378.13
2022-09-23T14:31:56.903Z,99378.81
2022-09-23T14:34:38.637Z,99369.78
2022-09-23T14:37:42.612Z,99369.84
2022-09-23T14:40:14.896Z,99365.63
2022-09-23T14:43:04.409Z,99368.59
2022-09-23T14:45:33.326Z,99360.09
2022-09-23T14:48:01.243Z,99352.84
2022-09-23T14:50:37.770Z,99352.28
2022-09-23T14:53:05.089Z,99346.75
2022-09-23T14:55:31.544Z,99352.59
2022-09-23T14:58:05.147Z,99354.34
2022-09-23T15:00:31.544Z,99350.19
2022-09-23T15:03:02.529Z,99348.44
2022-09-23T15:05:40.863Z,99349.81
2022-09-23T15:08:07.513Z,99347.84
2022-09-23T15:10:37.528Z,99347.75
2022-09-23T15:13:08.548Z,99342.84
2022-09-23T15:15:35.749Z,99345.38
2022-09-23T15:18:07.121Z,99341.31
2022-09-23T15:20:34.238Z,99342.44
2022-09-23T15:23:01.137Z,99335.63
2022-09-23T15:25:32.137Z,99341.69
2022-09-23T15:27:58.442Z,99343.09
2022-09-23T15:30:25.028Z,99346.78
2022-09-23T15:32:51.381Z,99347.28
2022-09-23T15:35:19.250Z,99345.91
2022-09-23T15:37:48.483Z,99348.09
2022-09-23T15:40:35.190Z,99348.66
2022-09-23T15:43:31.046Z,99347.13
2022-09-23T15:46:05.558Z,99336.19
2022-09-23T15:48:38.515Z,99335.00
2022-09-23T15:51:06.949Z,99335.94
2022-09-23T15:53:33.599Z,99336.66
2022-09-23T15:56:00.489Z,99326.69
2022-09-23T15:58:27.837Z,99330.22
2022-09-23T16:00:56.801Z,99322.16
2022-09-23T16:03:28.953Z,99323.09
2022-09-23T16:05:58.087Z,99323.06
2022-09-23T16:08:25.782Z,99324.84
2022-09-23T16:10:53.344Z,99328.13
2022-09-23T16:13:19.663Z,99320.22
2022-09-23T16:15:50.494Z,99321.69
2022-09-23T16:18:16.846Z,99316.88
2022-09-23T16:20:45.044Z,99309.34
2022-09-23T16:23:39.885Z,99308.09
2022-09-23T16:26:22.649Z,99318.72
2022-09-23T16:28:49.817Z,99309.56
2022-09-23T16:31:16.785Z,99310.13
2022-09-23T16:33:47.228Z,99312.53
2022-09-23T16:36:28.714Z,99310.50
2022-09-23T16:38:55.553Z,99318.47
2022-09-23T16:41:23.261Z,99308.31
2022-09-23T16:43:50.542Z,99308.94
2022-09-23T16:46:18.001Z,99314.88
2022-09-23T16:48:49.694Z,99314.66
2022-09-23T16:51:26.602Z,99313.63
2022-09-23T16:53:55.375Z,99309.91
2022-09-23T16:56:27.958Z,99315.06
2022-09-23T16:58:55.186Z,99308.53
2022-09-23T17:01:41.283Z,99310.81
2022-09-23T17:04:10.518Z,99306.97
2022-09-23T17:06:42.231Z,99311.91
2022-09-23T17:09:08.825Z,99304.16
2022-09-23T17:11:35.360Z,99310.94
2022-09-23T17:14:01.668Z,99301.38
2022-09-23T17:16:29.480Z,99299.88
2022-09-23T17:18:56.121Z,99303.84
2022-09-23T17:21:26.531Z,99310.28
2022-09-23T17:23:56.688Z,99303.38
2022-09-23T17:26:24.404Z,99304.66
2022-09-23T17:28:58.538Z,99297.88
2022-09-23T17:31:25.474Z,99303.56
2022-09-23T17:33:52.724Z,99293.13
2022-09-23T17:36:19.827Z,99300.69
2022-09-23T17:38:47.008Z,99301.00
2022-09-23T17:41:14.117Z,99295.06
2022-09-23T17:43:40.704Z,99296.19
2022-09-23T17:46:12.923Z,99294.66
2022-09-23T17:48:41.382Z,99296.91
2022-09-23T17:51:10.991Z,99294.66
2022-09-23T17:53:38.686Z,99299.50
2022-09-23T17:56:06.848Z,99302.50
2022-09-23T17:58:34.696Z,99301.91
2022-09-23T18:01:01.078Z,99295.13
2022-09-23T18:03:28.576Z,99306.19
2022-09-23T18:05:54.984Z,99305.69
2022-09-23T18:08:21.380Z,99303.31
2022-09-23T18:10:47.671Z,99306.28
2022-09-23T18:13:14.389Z,99297.66
2022-09-23T18:15:40.900Z,99305.13
2022-09-23T18:18:07.232Z,99306.16
2022-09-23T18:20:33.605Z,99307.41
2022-09-23T18:23:00.055Z,99305.72
2022-09-23T18:25:39.057Z,99308.66
2022-09-23T18:28:06.322Z,99301.91
2022-09-23T18:30:32.969Z,99307.44
2022-09-23T18:32:59.743Z,99304.09
2022-09-23T18:35:26.082Z,99300.75
2022-09-23T18:37:52.439Z,99309.09
2022-09-23T18:40:19.130Z,99305.75
2022-09-23T18:42:45.517Z,99303.16
2022-09-23T18:45:11.900Z,99304.16
2022-09-23T18:47:56.930Z,99304.38
2022-09-23T18:50:43.200Z,99305.38
2022-09-23T18:53:09.662Z,99308.13
2022-09-23T18:55:36.601Z,99311.03
2022-09-23T18:58:03.165Z,99307.69
2022-09-23T19:00:30.071Z,99312.31
2022-09-23T19:02:56.473Z,99305.34
2022-09-23T19:05:22.786Z,99305.47
2022-09-23T19:07:49.130Z,99301.03
2022-09-23T19:10:15.470Z,99305.75
2022-09-23T19:12:41.777Z,99304.06
2022-09-23T19:15:08.258Z,99305.19
2022-09-23T19:17:34.564Z,99305.53
2022-09-23T19:20:00.970Z,99293.34
2022-09-23T19:22:27.423Z,99298.03
2022-09-23T19:24:53.708Z,99303.75
2022-09-23T19:27:20.015Z,99298.53
2022-09-23T19:29:47.396Z,99306.75
2022-09-23T19:32:15.998Z,99306.94
2022-09-23T19:34:43.601Z,99297.41
2022-09-23T19:37:10.046Z,99306.47
2022-09-23T19:39:37.503Z,99299.41
2022-09-23T19:42:04.013Z,99296.94
2022-09-23T19:44:30.336Z,99297.66
2022-09-23T19:46:57.434Z,99298.50
2022-09-23T19:49:24.971Z,99302.00
2022-09-23T19:51:51.797Z,99296.56
2022-09-23T19:54:20.599Z,99299.16
2022-09-23T19:56:48.635Z,99295.66
2022-09-23T19:59:18.459Z,99295.81
2022-09-23T20:01:45.816Z,99297.59
2022-09-23T20:04:12.289Z,99296.88
2022-09-23T20:06:38.897Z,99288.97
2022-09-23T20:09:05.434Z,99294.38
2022-09-23T20:11:32.461Z,99293.66
2022-09-23T20:14:04.755Z,99290.28
2022-09-23T20:16:35.052Z,99286.72
2022-09-23T20:19:02.837Z,99292.28
2022-09-23T20:21:29.509Z,99286.97
2022-09-23T20:23:56.275Z,99287.97
2022-09-23T20:26:41.488Z,99284.44
2022-09-23T20:29:08.906Z,99280.09
2022-09-23T20:31:35.417Z,99273.97
2022-09-23T20:34:05.440Z,99276.03
2022-09-23T20:36:32.101Z,99270.91
2022-09-23T20:38:59.787Z,99279.16
2022-09-23T20:41:29.863Z,99271.22
2022-09-23T20:43:58.808Z,99268.69
2022-09-23T20:46:25.886Z,99271.63
2022-09-23T20:49:21.374Z,99273.63
2022-09-23T20:51:53.853Z,99266.72
2022-09-23T20:54:20.152Z,99266.88
2022-09-23T20:56:47.108Z,99263.53
2022-09-23T20:59:14.828Z,99271.72
2022-09-23T21:01:41.671Z,99263.88
2022-09-23T21:04:09.623Z,99264.06
2022-09-23T21:06:36.717Z,99266.84
2022-09-23T21:09:03.984Z,99263.41
2022-09-23T21:11:31.978Z,99264.41
2022-09-23T21:14:01.052Z,99267.97
2022-09-23T21:16:27.878Z,99263.56
2022-09-23T21:18:54.243Z,99254.59
2022-09-23T21:21:22.169Z,99255.38
2022-09-23T21:23:49.303Z,99252.72
2022-09-23T21:26:20.106Z,99249.13
2022-09-23T21:28:48.463Z,99242.78
2022-09-23T21:31:22.982Z,99233.88
2022-09-23T21:33:58.987Z,99239.16
2022-09-23T21:36:26.336Z,99240.91
2022-09-23T21:38:53.347Z,99242.47
2022-09-23T21:41:20.131Z,99243.28
2022-09-23T21:43:46.459Z,99239.63
2022-09-23T21:46:14.236Z,99236.94
2022-09-23T21:48:42.349Z,99243.13
2022-09-23T21:51:11.791Z,99238.50
2022-09-23T21:53:38.461Z,99234.84
2022-09-23T21:56:04.862Z,99237.31
2022-09-23T21:58:32.053Z,99233.72
2022-09-23T22:00:58.642Z,99238.88
2022-09-23T22:03:26.589Z,99241.47
2022-09-23T22:06:03.233Z,99243.13
2022-09-23T22:08:30.524Z,99243.88
2022-09-23T22:10:56.823Z,99241.00
2022-09-23T22:13:23.105Z,99238.31
2022-09-23T22:15:49.562Z,99237.31
2022-09-23T22:18:15.975Z,99234.66
2022-09-23T22:20:42.421Z,99228.50
2022-09-23T22:23:08.780Z,99215.13
2022-09-23T22:25:35.182Z,99222.22
2022-09-23T22:28:19.967Z,99217.69
2022-09-23T22:31:05.031Z,99215.91
2022-09-23T22:33:31.851Z,99219.38
2022-09-23T22:36:02.144Z,99218.50
2022-09-23T22:38:29.658Z,99214.09
2022-09-23T22:40:56.055Z,99210.47
2022-09-23T22:43:22.529Z,99207.78
2022-09-23T22:45:49.913Z,99206.88
2022-09-23T22:48:18.142Z,99204.19
2022-09-23T22:50:45.798Z,99209.47
2022-09-23T22:53:13.873Z,99201.44
2022-09-23T22:55:41.949Z,99202.25
2022-09-23T22:58:30.695Z,99204.78
2022-09-23T23:00:57.097Z,99201.13
2022-09-23T23:03:24.158Z,99198.31
2022-09-23T23:05:51.684Z,99197.34
2022-09-23T23:08:18.006Z,99190.16
2022-09-23T23:10:44.584Z,99186.59
2022-09-23T23:13:10.982Z,99190.03
2022-09-23T23:15:40.794Z,99190.03
2022-09-23T23:18:07.230Z,99187.34
2022-09-23T23:20:33.996Z,99188.13
2022-09-23T23:23:01.369Z,99180.91
2022-09-23T23:25:28.296Z,99181.00
2022-09-23T23:27:55.716Z,99194.38
2022-09-23T23:30:25.327Z,99184.53
2022-09-23T23:32:52.008Z,99179.16
2022-09-23T23:35:18.350Z,99178.34
2022-09-23T23:37:44.829Z,99176.56
2022-09-23T23:40:11.438Z,99180.19
2022-09-23T23:42:37.810Z,99178.50
2022-09-23T23:45:04.420Z,99182.13
2022-09-23T23:47:30.847Z,99190.16
2022-09-23T23:49:57.394Z,99176.75
2022-09-23T23:52:23.695Z,99172.34
2022-09-23T23:54:50.824Z,99175.91
2022-09-23T23:57:17.153Z,99179.44
2022-09-23T23:59:43.445Z,99171.41
